Sequim, WA (98382)

8:33 PM PDT on July 27, 2016 (GMT -0700)
Williamson Rd | | Change Station

Elev 167 ft 48.09 °N, 123.13 °W | Updated 1 minute ago

Clear
Clear
65.7 °F
Feels Like 65.7 °F
N
1.7
Wind Variable Wind from West

Today
High -- | Low -- °F
--% Chance of Precip.
Yesterday
High -- | Low -- °F
Precip. -- in
Pressure 30.09 in
Visibility 10.0 miles
Clouds Clear
Dew Point 56 °F
Humidity 70%
Rainfall 0.00 in
Snow Depth Not available.
5:42 AM 8:54 PM
Last Quarter, 36% visible
METAR KCLM 280253Z AUTO 31004KT 10SM CLR 21/13 A3009 RMK AO2 SLP190 T02060133 56010
Pressure 30.09 in
Visibility 10.0 miles
Clouds Clear
Dew Point 56 °F
Humidity 70%
Rainfall 0.00 in
Snow Depth Not available.
5:42 AM 8:54 PM
Last Quarter, 36% visible
METAR KCLM 280253Z AUTO 31004KT 10SM CLR 21/13 A3009 RMK AO2 SLP190 T02060133 56010

10-Day Weather Forecast

Almanac

Astronomy

Jul. 27, 2016 Rise Set
Actual Time
Civil Twilight
Nautical Twilight
Astronomical Twilight
Moon
Length of Visible Light
Length of Day
Tomorrow will be .
, % of the Moon is Illuminated

Today's Extremes

State Highs State Lows

Community

WunderPhotos

Upload Photos

1,928,037 photos uploaded!

WunderBlog® & News

Nearby

Air Quality

  Air Quality AQ Index Pollutant
Not available.

Snow Depth

Station Depth Elevation

Earthquake Activity

City Distance Mag. Time & Date
Minimum magnitude displayed is 2.5.

Coastal Water Temperatures

Place Temperature

Stations

Nearby Weather Stations

Station Location Temp. Windchill Dew Point Humidity Wind Precip. Elev Updated Type
                   

Watches & Warnings

There are currently no watches in effect.